Time;durP1;ratioP1;P1;durP2;ratioP2;P2;SDS_P1;SDS_P2;PMS_P1;PMS_P2;Temp;Humidity;BMP_temperature;BMP_pressure;BME280_temperature;BME280_humidity;BME280_pressure;Samples;Min_cycle;Max_cycle;Signal;HPM_P1;HPM_P2
2023/01/25 00:01:08;;;;;;;8.40;8.20;;;2.10;99.90;;;;;;5099305;28;20206;-82
2023/01/25 00:03:38;;;;;;;8.50;8.30;;;2.10;99.90;;;;;;5100210;28;20214;-80
2023/01/25 00:06:07;;;;;;;8.57;8.37;;;2.00;99.90;;;;;;5100193;28;20218;-80
2023/01/25 00:08:35;;;;;;;8.77;8.57;;;1.90;99.90;;;;;;5100213;28;20294;-81
2023/01/25 00:11:02;;;;;;;8.90;8.70;;;1.80;99.90;;;;;;5100359;28;20278;-81
2023/01/25 00:13:30;;;;;;;8.90;8.70;;;1.70;99.90;;;;;;5099322;28;20202;-81
2023/01/25 00:16:02;;;;;;;8.87;8.67;;;1.80;99.90;;;;;;5098567;28;20245;-81
2023/01/25 00:18:31;;;;;;;8.80;8.60;;;1.80;99.90;;;;;;5097187;28;20268;-81
2023/01/25 00:20:58;;;;;;;8.90;8.70;;;2.00;99.90;;;;;;5097352;28;20222;-81
2023/01/25 00:23:32;;;;;;;8.60;8.40;;;2.10;99.90;;;;;;5100062;28;20244;-80
2023/01/25 00:26:00;;;;;;;8.50;8.30;;;2.10;99.90;;;;;;5099779;28;20222;-80
2023/01/25 00:28:28;;;;;;;9.10;8.80;;;2.10;99.90;;;;;;5100133;28;20218;-81
2023/01/25 00:31:01;;;;;;;8.87;8.67;;;2.10;99.90;;;;;;5099112;28;20233;-81
2023/01/25 00:33:44;;;;;;;8.67;8.47;;;2.00;99.90;;;;;;5099772;28;20225;-81
2023/01/25 00:36:34;;;;;;;9.17;8.87;;;1.90;99.90;;;;;;5099746;28;20277;-81
2023/01/25 00:39:02;;;;;;;9.13;8.83;;;1.80;99.90;;;;;;5099901;28;20225;-81
2023/01/25 00:41:29;;;;;;;9.20;8.90;;;1.90;99.90;;;;;;5099535;28;20218;-82
2023/01/25 00:44:00;;;;;;;8.80;8.60;;;1.90;99.90;;;;;;5098856;28;20251;-81
2023/01/25 00:46:30;;;;;;;9.20;8.90;;;1.90;99.90;;;;;;5098144;28;20271;-81
2023/01/25 00:48:59;;;;;;;9.10;8.80;;;1.90;99.90;;;;;;5099552;28;20253;-81
2023/01/25 00:51:27;;;;;;;9.37;9.07;;;1.80;99.90;;;;;;5097497;28;20230;-81
2023/01/25 00:53:54;;;;;;;8.97;8.77;;;1.80;99.90;;;;;;5083678;28;20214;-82
2023/01/25 00:56:22;;;;;;;8.70;8.50;;;1.70;99.90;;;;;;5082487;28;20236;-81
2023/01/25 00:58:51;;;;;;;8.97;8.73;;;1.70;99.90;;;;;;5081443;28;20308;-82
2023/01/25 01:01:19;;;;;;;9.00;8.70;;;1.70;99.90;;;;;;5078026;28;20224;-82
2023/01/25 01:03:46;;;;;;;9.10;8.80;;;1.60;99.90;;;;;;5081847;28;20282;-81
2023/01/25 01:06:15;;;;;;;9.30;9.00;;;1.60;99.90;;;;;;5080931;28;20234;-82
2023/01/25 01:08:43;;;;;;;9.03;8.77;;;1.50;99.90;;;;;;5080735;28;20248;-81
2023/01/25 01:11:13;;;;;;;9.10;8.80;;;1.50;99.90;;;;;;5080907;28;20260;-81
2023/01/25 01:13:41;;;;;;;9.03;8.73;;;1.40;99.90;;;;;;5081176;28;20280;-81
2023/01/25 01:16:11;;;;;;;9.23;8.93;;;1.40;99.90;;;;;;5081001;28;20329;-82
2023/01/25 01:18:42;;;;;;;9.03;8.73;;;1.40;99.90;;;;;;5083928;28;20266;-80
2023/01/25 01:21:11;;;;;;;9.10;8.80;;;1.30;99.90;;;;;;5085299;28;20265;-81
2023/01/25 01:23:46;;;;;;;9.10;8.80;;;1.30;99.90;;;;;;5087402;28;20321;-81
2023/01/25 01:26:18;;;;;;;9.20;8.90;;;1.20;99.90;;;;;;5084594;28;20226;-81
2023/01/25 01:28:46;;;;;;;9.10;8.80;;;1.30;99.90;;;;;;5083911;28;20324;-80
2023/01/25 01:31:19;;;;;;;8.97;8.73;;;1.30;99.90;;;;;;5080806;28;20242;-80
2023/01/25 01:33:50;;;;;;;8.93;8.70;;;1.30;99.90;;;;;;5089263;28;20233;-80
2023/01/25 01:36:21;;;;;;;8.80;8.60;;;1.30;99.90;;;;;;5083174;28;20231;-80
2023/01/25 01:38:51;;;;;;;9.07;8.80;;;1.30;99.90;;;;;;5089663;28;20261;-80
2023/01/25 01:41:20;;;;;;;9.10;8.80;;;1.30;99.90;;;;;;5085389;28;20223;-80
2023/01/25 01:43:47;;;;;;;8.97;8.70;;;1.30;99.90;;;;;;5084447;28;20287;-80
2023/01/25 01:46:22;;;;;;;8.80;8.60;;;1.30;99.90;;;;;;5083398;28;20230;-81
2023/01/25 01:48:54;;;;;;;8.93;8.73;;;1.30;99.90;;;;;;5084317;28;20292;-80
2023/01/25 01:51:38;;;;;;;8.80;8.60;;;1.30;99.90;;;;;;5084073;28;20234;-80
2023/01/25 01:54:13;;;;;;;9.07;8.77;;;1.40;99.90;;;;;;5084266;28;20234;-81
2023/01/25 01:56:50;;;;;;;8.60;8.40;;;1.40;99.90;;;;;;5085633;28;20293;-80
2023/01/25 01:59:19;;;;;;;9.07;8.77;;;1.40;99.90;;;;;;5086419;28;20234;-80
2023/01/25 02:01:47;;;;;;;9.07;8.77;;;1.40;99.90;;;;;;5085377;28;20258;-81
2023/01/25 02:04:18;;;;;;;9.17;8.87;;;1.40;99.90;;;;;;5086356;28;20429;-81
2023/01/25 02:06:53;;;;;;;8.83;8.63;;;1.50;99.90;;;;;;5086063;28;20257;-81
2023/01/25 02:09:26;;;;;;;8.80;8.60;;;1.50;99.90;;;;;;5086067;28;20328;-80
2023/01/25 02:11:59;;;;;;;8.97;8.70;;;1.50;99.90;;;;;;5085595;28;20230;-81
2023/01/25 02:14:29;;;;;;;9.03;8.80;;;1.50;99.90;;;;;;5085579;28;20229;-81
2023/01/25 02:16:57;;;;;;;9.10;8.80;;;1.40;99.90;;;;;;5087414;28;20372;-81
2023/01/25 02:19:38;;;;;;;8.67;8.47;;;1.40;99.90;;;;;;5085207;28;20240;-81
2023/01/25 02:22:15;;;;;;;8.70;8.50;;;1.50;99.90;;;;;;5084900;28;20300;-81
2023/01/25 02:25:03;;;;;;;8.77;8.57;;;1.40;99.90;;;;;;5085749;28;20238;-81
2023/01/25 02:27:31;;;;;;;8.80;8.60;;;1.40;99.90;;;;;;5085312;28;20238;-81
2023/01/25 02:29:59;;;;;;;8.77;8.57;;;1.30;99.90;;;;;;5085614;28;20264;-81
2023/01/25 02:32:27;;;;;;;9.10;8.80;;;1.30;99.90;;;;;;5084757;28;20227;-81
2023/01/25 02:34:54;;;;;;;8.60;8.40;;;1.30;99.90;;;;;;5084799;28;20325;-81
2023/01/25 02:37:22;;;;;;;8.83;8.63;;;1.30;99.90;;;;;;5085317;28;20246;-80
2023/01/25 02:39:51;;;;;;;9.17;8.87;;;1.30;99.90;;;;;;5084765;28;20281;-80
2023/01/25 02:42:20;;;;;;;8.90;8.70;;;1.30;99.90;;;;;;5085415;28;20237;-81
2023/01/25 02:44:50;;;;;;;8.80;8.60;;;1.40;99.90;;;;;;5085725;28;20245;-81
2023/01/25 02:47:18;;;;;;;8.50;8.30;;;1.50;99.90;;;;;;5077506;28;20325;-81
2023/01/25 02:49:46;;;;;;;8.80;8.60;;;1.50;99.90;;;;;;5085441;28;20234;-81
2023/01/25 02:52:13;;;;;;;8.70;8.50;;;1.40;99.90;;;;;;5085358;28;20326;-81
2023/01/25 02:54:41;;;;;;;8.53;8.33;;;1.50;99.90;;;;;;5084361;28;20218;-81
2023/01/25 02:57:09;;;;;;;8.57;8.37;;;1.40;99.90;;;;;;5084714;28;20234;-81
2023/01/25 02:59:39;;;;;;;8.70;8.50;;;1.40;99.90;;;;;;5084401;28;20241;-81
2023/01/25 03:02:07;;;;;;;8.67;8.47;;;1.40;99.90;;;;;;5083815;28;20234;-81
2023/01/25 03:04:35;;;;;;;8.80;8.60;;;1.30;99.90;;;;;;5084584;28;20324;-80
2023/01/25 03:07:03;;;;;;;8.63;8.43;;;1.30;99.90;;;;;;5084703;28;20230;-81
2023/01/25 03:09:30;;;;;;;8.70;8.50;;;1.20;99.90;;;;;;5083174;28;20288;-81
2023/01/25 03:12:00;;;;;;;8.80;8.60;;;1.20;99.90;;;;;;5084026;28;20269;-81
2023/01/25 03:14:28;;;;;;;9.10;8.80;;;1.20;99.90;;;;;;5081652;28;20229;-81
2023/01/25 03:16:57;;;;;;;8.90;8.70;;;1.10;99.90;;;;;;5083378;28;20313;-81
2023/01/25 03:19:25;;;;;;;8.80;8.60;;;1.10;99.90;;;;;;5083360;28;20324;-81
2023/01/25 03:21:54;;;;;;;9.17;8.87;;;1.10;99.90;;;;;;5084062;28;20241;-82
2023/01/25 03:24:21;;;;;;;9.07;8.77;;;1.10;99.90;;;;;;5083476;28;20226;-81
2023/01/25 03:29:33;;;;;;;9.10;8.80;;;1.30;99.90;;;;;;5085351;28;20230;-81
2023/01/25 03:32:04;;;;;;;8.93;8.70;;;1.30;99.90;;;;;;5087741;28;20253;-81
2023/01/25 03:34:31;;;;;;;8.77;8.57;;;1.30;99.90;;;;;;5086427;28;20226;-81
2023/01/25 03:36:59;;;;;;;9.03;8.73;;;1.20;99.90;;;;;;5086509;28;20321;-81
2023/01/25 03:39:28;;;;;;;8.80;8.60;;;1.20;99.90;;;;;;5080417;28;20238;-81
2023/01/25 03:41:57;;;;;;;8.90;8.70;;;1.10;99.90;;;;;;5080664;28;20274;-81
2023/01/25 03:44:25;;;;;;;8.90;8.70;;;1.10;99.90;;;;;;5081889;28;20280;-81
2023/01/25 03:46:52;;;;;;;9.10;8.80;;;1.10;99.90;;;;;;5082647;28;20337;-81
2023/01/25 03:49:23;;;;;;;8.80;8.60;;;1.10;99.90;;;;;;5082545;28;20321;-81
2023/01/25 03:51:50;;;;;;;8.43;8.23;;;1.20;99.90;;;;;;5083065;28;20290;-81
2023/01/25 03:54:18;;;;;;;8.40;8.20;;;1.10;99.90;;;;;;5075151;28;20233;-81
2023/01/25 03:56:47;;;;;;;8.33;8.13;;;1.10;99.90;;;;;;5082719;28;20245;-81
2023/01/25 03:59:19;;;;;;;8.37;8.17;;;1.10;99.90;;;;;;5082471;28;20236;-81
2023/01/25 04:01:46;;;;;;;8.33;8.13;;;1.20;99.90;;;;;;5082176;28;20226;-83
2023/01/25 04:04:15;;;;;;;8.37;8.17;;;1.10;99.90;;;;;;5083030;28;20268;-81
2023/01/25 04:06:45;;;;;;;8.40;8.20;;;1.10;99.90;;;;;;5084887;28;20309;-81
2023/01/25 04:09:13;;;;;;;8.50;8.30;;;1.10;99.90;;;;;;5097269;28;20237;-81
2023/01/25 04:11:41;;;;;;;8.43;8.23;;;1.10;99.90;;;;;;5087629;28;20242;-81
2023/01/25 04:14:11;;;;;;;8.60;8.40;;;1.20;99.90;;;;;;5085366;28;20220;-81
2023/01/25 04:16:38;;;;;;;8.00;7.80;;;1.30;99.90;;;;;;5084552;28;20226;-81
2023/01/25 04:19:06;;;;;;;8.53;8.33;;;1.30;99.90;;;;;;5084097;28;20230;-82
2023/01/25 04:21:33;;;;;;;8.50;8.30;;;1.40;99.90;;;;;;5081993;28;20284;-81
2023/01/25 04:24:02;;;;;;;8.50;8.30;;;1.30;99.90;;;;;;5083562;28;20228;-81
2023/01/25 04:26:30;;;;;;;8.40;8.20;;;1.40;99.90;;;;;;5084182;28;20253;-81
2023/01/25 04:28:59;;;;;;;8.60;8.40;;;1.40;99.90;;;;;;5083678;28;20241;-81
2023/01/25 04:31:26;;;;;;;8.30;8.10;;;1.40;99.90;;;;;;5083261;28;20234;-81
2023/01/25 04:33:55;;;;;;;8.10;7.90;;;1.50;99.90;;;;;;5080309;28;20224;-81
2023/01/25 04:36:23;;;;;;;8.10;7.90;;;1.40;99.90;;;;;;5083287;28;20280;-81
2023/01/25 04:38:50;;;;;;;8.33;8.13;;;1.40;99.90;;;;;;5086723;28;20234;-81
2023/01/25 04:41:25;;;;;;;8.40;8.20;;;1.30;99.90;;;;;;5088016;28;20237;-81
2023/01/25 04:43:53;;;;;;;8.17;7.97;;;1.30;99.90;;;;;;5088774;28;20261;-81
2023/01/25 04:46:20;;;;;;;8.30;8.10;;;1.20;99.90;;;;;;5086914;28;20304;-82
2023/01/25 04:48:48;;;;;;;8.23;8.03;;;1.20;99.90;;;;;;5087168;28;20230;-81
2023/01/25 04:51:17;;;;;;;8.40;8.20;;;1.20;99.90;;;;;;5085963;28;20294;-81
2023/01/25 04:53:45;;;;;;;8.07;7.87;;;1.10;99.90;;;;;;5085913;28;20230;-81
2023/01/25 04:56:12;;;;;;;8.20;8.00;;;1.10;99.90;;;;;;5085882;28;20233;-81
2023/01/25 04:58:41;;;;;;;8.13;7.93;;;1.10;99.90;;;;;;5085846;28;20230;-82
2023/01/25 05:01:09;;;;;;;8.20;8.00;;;1.10;99.90;;;;;;5084654;28;20333;-81
2023/01/25 05:03:37;;;;;;;8.40;8.20;;;1.10;99.90;;;;;;5084942;28;20722;-81
2023/01/25 05:06:05;;;;;;;8.30;8.10;;;1.00;99.90;;;;;;5084300;28;20252;-81
2023/01/25 05:08:34;;;;;;;8.30;8.10;;;1.00;99.90;;;;;;5085300;28;20240;-81
2023/01/25 05:11:03;;;;;;;8.30;8.10;;;1.00;99.90;;;;;;5084959;28;20273;-81
2023/01/25 05:13:32;;;;;;;8.37;8.17;;;1.00;99.90;;;;;;5084323;28;20266;-82
2023/01/25 05:16:03;;;;;;;8.50;8.30;;;1.00;99.90;;;;;;5083733;28;20253;-81
2023/01/25 05:18:32;;;;;;;8.30;8.10;;;1.00;99.90;;;;;;5090633;28;20273;-80
2023/01/25 05:21:02;;;;;;;8.37;8.17;;;1.00;99.90;;;;;;5098116;28;20225;-81
2023/01/25 05:23:31;;;;;;;8.60;8.40;;;0.90;99.90;;;;;;5085419;28;20213;-81
2023/01/25 05:28:43;;;;;;;8.60;8.40;;;1.00;99.90;;;;;;5064763;28;20248;-81
2023/01/25 05:31:12;;;;;;;8.30;8.10;;;1.10;99.90;;;;;;5083844;28;20260;-81
2023/01/25 05:33:39;;;;;;;8.27;8.07;;;1.10;99.90;;;;;;5083343;28;20233;-82
2023/01/25 05:36:08;;;;;;;8.00;7.80;;;1.10;99.90;;;;;;5084573;28;20240;-81
2023/01/25 05:38:35;;;;;;;8.50;8.30;;;1.10;99.90;;;;;;5084810;28;20294;-81
2023/01/25 05:41:03;;;;;;;7.93;7.73;;;1.10;99.90;;;;;;5084763;28;20294;-81
2023/01/25 05:46:27;;;;;;;8.40;8.20;;;1.00;99.90;;;;;;5081452;28;20262;-87
2023/01/25 05:48:58;;;;;;;8.40;8.20;;;1.00;99.90;;;;;;5081984;28;20229;-86
2023/01/25 05:51:34;;;;;;;8.17;7.97;;;1.00;99.90;;;;;;5075503;28;20230;-87
2023/01/25 05:54:13;;;;;;;8.43;8.23;;;0.90;99.90;;;;;;5075756;28;20222;-87
2023/01/25 05:56:41;;;;;;;8.33;8.13;;;0.90;99.90;;;;;;5078334;28;20288;-86
2023/01/25 05:59:13;;;;;;;8.23;8.03;;;0.90;99.90;;;;;;5072874;28;20265;-87
2023/01/25 06:01:42;;;;;;;8.37;8.17;;;0.90;99.90;;;;;;5079690;28;20246;-87
2023/01/25 06:04:19;;;;;;;8.20;8.00;;;1.00;99.90;;;;;;5075810;28;20242;-87
2023/01/25 06:06:47;;;;;;;8.30;8.10;;;1.00;99.90;;;;;;5076844;28;20226;-87
2023/01/25 06:09:17;;;;;;;8.40;8.20;;;0.90;99.90;;;;;;5072475;28;20321;-87
2023/01/25 06:11:46;;;;;;;8.40;8.20;;;1.00;99.90;;;;;;5063985;28;20235;-85
2023/01/25 06:14:15;;;;;;;8.30;8.10;;;1.00;99.90;;;;;;5082704;28;20230;-87
2023/01/25 06:16:57;;;;;;;7.90;7.70;;;1.00;99.90;;;;;;5084357;28;20234;-87
2023/01/25 06:19:25;;;;;;;8.07;7.87;;;1.10;99.90;;;;;;5085231;28;20317;-86
2023/01/25 06:22:06;;;;;;;7.97;7.77;;;1.10;99.90;;;;;;5084926;28;20232;-87
2023/01/25 06:24:42;;;;;;;8.00;7.80;;;1.20;99.90;;;;;;5083888;28;20277;-87
2023/01/25 06:27:11;;;;;;;8.07;7.87;;;1.20;99.90;;;;;;5084952;28;20230;-88
2023/01/25 06:29:49;;;;;;;8.00;7.80;;;1.20;99.90;;;;;;5090350;28;20226;-86
2023/01/25 06:35:14;;;;;;;8.20;8.00;;;1.30;99.90;;;;;;5083376;28;20214;-86
2023/01/25 06:37:54;;;;;;;7.90;7.70;;;1.30;99.90;;;;;;5083425;28;20244;-87
2023/01/25 06:40:34;;;;;;;8.20;8.00;;;1.30;99.90;;;;;;5079727;28;20264;-87
2023/01/25 06:43:10;;;;;;;8.23;8.03;;;1.20;99.90;;;;;;5083718;28;20252;-86
2023/01/25 06:45:41;;;;;;;8.60;8.40;;;1.00;99.90;;;;;;5083444;28;20230;-87
2023/01/25 06:48:28;;;;;;;8.60;8.40;;;1.00;99.90;;;;;;5084044;28;20276;-87
2023/01/25 06:59:16;;;;;;;8.90;8.70;;;0.90;99.90;;;;;;5084034;28;20225;-87
2023/01/25 07:01:46;;;;;;;9.20;8.90;;;0.80;99.90;;;;;;5085050;28;20230;-86
2023/01/25 07:04:24;;;;;;;9.27;8.97;;;0.80;99.90;;;;;;5084439;28;20226;-85
2023/01/25 07:07:02;;;;;;;8.80;8.60;;;0.80;99.90;;;;;;5083606;28;20283;-86
2023/01/25 07:09:33;;;;;;;9.10;8.80;;;0.70;99.90;;;;;;5077966;28;20218;-87
2023/01/25 07:12:03;;;;;;;8.90;8.70;;;0.70;99.90;;;;;;5085098;28;20302;-86
2023/01/25 07:14:31;;;;;;;8.90;8.70;;;0.70;99.90;;;;;;5084790;28;20230;-86
2023/01/25 07:16:59;;;;;;;8.70;8.50;;;0.70;99.90;;;;;;5084193;28;20241;-87
2023/01/25 07:19:39;;;;;;;9.10;8.80;;;0.70;99.90;;;;;;5090727;28;20226;-86
2023/01/25 07:24:56;;;;;;;8.87;8.67;;;0.80;99.90;;;;;;5069692;28;20779;-86
2023/01/25 07:27:48;;;;;;;8.97;8.73;;;0.90;99.90;;;;;;5086853;28;20274;-86
2023/01/25 07:30:40;;;;;;;9.00;8.80;;;0.90;99.90;;;;;;5085290;28;20721;-87
2023/01/25 07:33:17;;;;;;;9.20;8.90;;;1.00;99.90;;;;;;5083642;28;20378;-88
2023/01/25 07:35:56;;;;;;;9.30;9.00;;;1.10;99.90;;;;;;5083907;28;20236;-88
2023/01/25 07:38:24;;;;;;;9.00;8.80;;;1.20;99.90;;;;;;5084062;28;20226;-88
2023/01/25 07:41:03;;;;;;;9.07;8.80;;;1.30;99.90;;;;;;5083627;28;20233;-88
2023/01/25 07:44:06;;;;;;;9.00;8.80;;;1.20;99.90;;;;;;5083538;28;20265;-88
2023/01/25 07:47:03;;;;;;;8.70;8.50;;;1.20;99.90;;;;;;5068492;28;20236;-88
2023/01/25 07:49:35;;;;;;;8.70;8.50;;;1.00;99.90;;;;;;5082135;28;20233;-86
2023/01/25 07:52:21;;;;;;;8.73;8.53;;;0.90;99.90;;;;;;5074134;28;20226;-88
2023/01/25 07:58:52;;;;;;;8.80;8.60;;;0.80;99.90;;;;;;5071161;28;20223;-88
2023/01/25 08:01:52;;;;;;;8.70;8.50;;;0.70;99.90;;;;;;5076797;28;20230;-86
2023/01/25 08:04:20;;;;;;;8.67;8.47;;;0.60;99.90;;;;;;5083189;28;20234;-89
2023/01/25 08:10:19;;;;;;;8.50;8.30;;;0.60;99.90;;;;;;5099121;28;20199;-89
2023/01/25 08:12:50;;;;;;;8.60;8.40;;;0.70;99.90;;;;;;5100173;28;20222;-89
2023/01/25 08:15:38;;;;;;;8.80;8.60;;;0.70;99.90;;;;;;5100485;28;20206;-89
2023/01/25 08:18:06;;;;;;;8.73;8.53;;;0.70;99.90;;;;;;5091467;28;20233;-89
2023/01/25 08:20:46;;;;;;;8.77;8.57;;;0.80;99.90;;;;;;5084705;28;20237;-90
2023/01/25 08:23:14;;;;;;;8.57;8.37;;;0.80;99.90;;;;;;5083699;28;20229;-87
2023/01/25 08:28:31;;;;;;;8.50;8.30;;;0.90;99.90;;;;;;5082320;28;20305;-87
2023/01/25 08:31:10;;;;;;;8.70;8.50;;;0.90;99.90;;;;;;5083243;28;20245;-88
2023/01/25 08:33:48;;;;;;;8.80;8.60;;;0.90;99.90;;;;;;5083164;28;20229;-88
2023/01/25 08:36:22;;;;;;;9.47;9.17;;;0.90;99.90;;;;;;5082207;28;20269;-88
2023/01/25 08:44:29;;;;;;;8.80;8.60;;;0.90;99.90;;;;;;5094976;28;20214;-89
2023/01/25 08:46:58;;;;;;;8.60;8.40;;;0.90;99.90;;;;;;5089101;28;20232;-88
2023/01/25 08:49:29;;;;;;;8.50;8.30;;;0.90;99.90;;;;;;5082058;28;20234;-88
2023/01/25 08:51:58;;;;;;;8.50;8.30;;;0.90;99.90;;;;;;5081515;28;20264;-88
2023/01/25 08:54:28;;;;;;;9.20;8.90;;;0.90;99.90;;;;;;5081875;28;20226;-87
2023/01/25 08:57:07;;;;;;;9.13;8.83;;;0.80;99.90;;;;;;5091454;28;20229;-89
2023/01/25 09:02:23;;;;;;;8.30;8.10;;;1.00;99.90;;;;;;5089292;28;20285;-84
2023/01/25 09:15:26;;;;;;;8.67;8.47;;;0.80;99.90;;;;;;5077842;28;20229;-87
2023/01/25 09:31:51;;;;;;;9.20;8.90;;;1.00;99.90;;;;;;5010325;28;20296;-85
2023/01/25 09:34:19;;;;;;;9.00;8.80;;;1.00;99.90;;;;;;5083686;28;20237;-86
2023/01/25 09:36:48;;;;;;;8.90;8.70;;;1.00;99.90;;;;;;5083416;28;20226;-86
2023/01/25 09:39:19;;;;;;;8.73;8.53;;;1.10;99.90;;;;;;5083118;28;20237;-87
2023/01/25 09:42:23;;;;;;;8.87;8.67;;;1.20;99.90;;;;;;5083264;28;20404;-86
2023/01/25 09:45:20;;;;;;;8.70;8.50;;;1.30;99.90;;;;;;5086860;28;20276;-87
2023/01/25 09:49:14;;;;;;;8.87;8.67;;;1.20;99.90;;;;;;5087376;28;20218;-88
2023/01/25 09:52:03;;;;;;;8.73;8.53;;;1.20;99.90;;;;;;5004604;28;20221;-85
2023/01/25 09:54:51;;;;;;;8.90;8.70;;;1.10;99.90;;;;;;5003007;28;20221;-85
2023/01/25 09:57:55;;;;;;;8.80;8.60;;;1.10;99.90;;;;;;5064985;28;20230;-90
2023/01/25 10:10:22;;;;;;;8.70;8.50;;;1.20;99.90;;;;;;5069566;28;20225;-87
2023/01/25 10:12:59;;;;;;;8.60;8.40;;;1.30;99.90;;;;;;5078276;28;20296;-87
2023/01/25 10:15:58;;;;;;;9.20;8.90;;;1.20;99.90;;;;;;5082192;28;20226;-89
2023/01/25 10:19:38;;;;;;;9.10;8.80;;;1.20;99.90;;;;;;5077708;28;20229;-87
2023/01/25 10:22:14;;;;;;;8.90;8.70;;;1.20;99.90;;;;;;5075513;28;20232;-87
2023/01/25 10:28:59;;;;;;;9.17;8.87;;;1.30;99.90;;;;;;5072367;28;20252;-91
2023/01/25 10:32:12;;;;;;;9.23;8.93;;;1.40;99.90;;;;;;5004672;28;20316;-86
2023/01/25 10:38:56;;;;;;;8.90;8.70;;;1.40;99.90;;;;;;5076667;28;20226;-87
2023/01/25 10:44:32;;;;;;;8.93;8.73;;;1.20;99.90;;;;;;5086600;28;20240;-90
2023/01/25 10:47:38;;;;;;;9.20;8.90;;;1.10;99.90;;;;;;5086081;28;20236;-88
2023/01/25 10:50:24;;;;;;;9.03;8.80;;;1.10;99.90;;;;;;5077295;28;20377;-87
2023/01/25 10:53:02;;;;;;;8.73;8.53;;;1.20;99.90;;;;;;5097828;28;20218;-87
2023/01/25 10:55:30;;;;;;;9.27;8.97;;;1.20;99.90;;;;;;5096882;28;20205;-87
2023/01/25 10:58:08;;;;;;;9.03;8.80;;;1.30;99.90;;;;;;5079109;28;20223;-88
2023/01/25 11:00:40;;;;;;;9.30;9.00;;;1.50;99.90;;;;;;5079345;28;20246;-88
2023/01/25 11:03:26;;;;;;;9.43;9.13;;;1.50;99.90;;;;;;5081983;28;20238;-87
2023/01/25 11:05:56;;;;;;;9.60;9.30;;;1.50;99.90;;;;;;5085228;28;20239;-87
2023/01/25 11:11:28;;;;;;;9.40;9.10;;;1.60;99.90;;;;;;5079513;28;20317;-86
2023/01/25 11:14:02;;;;;;;9.20;8.90;;;1.70;99.90;;;;;;5085368;28;20226;-87
2023/01/25 11:16:44;;;;;;;9.50;9.20;;;1.70;99.90;;;;;;5086447;28;20255;-87
2023/01/25 11:19:42;;;;;;;9.40;9.10;;;1.70;99.90;;;;;;5102101;28;20272;-87
2023/01/25 11:22:29;;;;;;;9.00;8.80;;;1.60;99.90;;;;;;5093847;28;20230;-87
2023/01/25 11:24:57;;;;;;;9.40;9.10;;;1.50;99.90;;;;;;5090823;28;20233;-87
2023/01/25 11:27:26;;;;;;;9.40;9.10;;;1.40;99.90;;;;;;5084595;28;20234;-87
2023/01/25 11:30:22;;;;;;;9.50;9.20;;;1.30;99.90;;;;;;5084018;28;20234;-88
2023/01/25 11:32:54;;;;;;;9.23;8.93;;;1.20;99.90;;;;;;5083181;28;20265;-89
2023/01/25 11:35:40;;;;;;;9.37;9.07;;;1.20;99.90;;;;;;5083711;28;20219;-86
2023/01/25 11:38:19;;;;;;;9.20;8.90;;;1.30;99.90;;;;;;5085897;28;20317;-87
2023/01/25 11:44:44;;;;;;;8.70;8.50;;;1.50;99.90;;;;;;5084329;22;20745;-82
2023/01/25 11:47:27;;;;;;;8.60;8.40;;;1.60;99.90;;;;;;5036861;28;20245;-83
2023/01/25 11:50:07;;;;;;;8.50;8.30;;;1.70;99.90;;;;;;5054605;28;20752;-82
2023/01/25 11:53:02;;;;;;;8.70;8.50;;;1.70;99.90;;;;;;5062486;28;20240;-82
2023/01/25 11:55:36;;;;;;;9.00;8.80;;;1.70;99.90;;;;;;5063094;28;20230;-84
2023/01/25 11:58:22;;;;;;;8.60;8.40;;;1.70;99.90;;;;;;5062711;28;20233;-82
2023/01/25 12:01:06;;;;;;;8.50;8.30;;;1.70;99.90;;;;;;5062605;28;20233;-81
2023/01/25 12:04:21;;;;;;;8.83;8.63;;;1.70;99.90;;;;;;5060981;28;20235;-82
2023/01/25 12:06:59;;;;;;;8.63;8.43;;;1.70;99.90;;;;;;5060502;28;20258;-82
2023/01/25 12:09:47;;;;;;;9.40;9.10;;;1.70;99.90;;;;;;5064420;28;20241;-82
2023/01/25 12:12:36;;;;;;;9.00;8.80;;;1.70;99.90;;;;;;5064131;28;20231;-83
2023/01/25 12:15:33;;;;;;;8.80;8.60;;;1.80;99.90;;;;;;5064943;28;20230;-84
2023/01/25 12:18:26;;;;;;;8.93;8.73;;;1.90;99.90;;;;;;5068495;28;20241;-82
2023/01/25 12:21:06;;;;;;;9.17;8.87;;;1.90;99.90;;;;;;5066833;28;20234;-83
2023/01/25 12:23:51;;;;;;;9.20;8.90;;;1.90;99.90;;;;;;5066435;28;20667;-81
2023/01/25 12:26:26;;;;;;;8.80;8.60;;;1.80;99.90;;;;;;5066074;28;20244;-83
2023/01/25 12:29:04;;;;;;;8.97;8.73;;;1.80;99.90;;;;;;5065976;28;20320;-84
2023/01/25 12:31:42;;;;;;;8.60;8.40;;;1.70;99.90;;;;;;5065096;28;20241;-80
2023/01/25 12:34:18;;;;;;;8.73;8.53;;;1.60;99.90;;;;;;5065890;28;20230;-80
2023/01/25 12:36:49;;;;;;;8.90;8.70;;;1.70;99.90;;;;;;5065375;28;20237;-80
2023/01/25 12:39:29;;;;;;;9.03;8.80;;;1.60;99.90;;;;;;5077926;28;20203;-81
2023/01/25 12:42:04;;;;;;;8.80;8.60;;;1.70;99.90;;;;;;5075458;28;20230;-81
2023/01/25 12:44:36;;;;;;;9.30;9.00;;;1.70;99.90;;;;;;5075834;28;20254;-81
2023/01/25 12:47:13;;;;;;;9.00;8.80;;;1.80;99.90;;;;;;5062635;28;20285;-81
2023/01/25 12:49:47;;;;;;;8.40;8.20;;;1.70;99.90;;;;;;5064244;28;20265;-82
2023/01/25 12:52:24;;;;;;;8.70;8.50;;;1.70;99.90;;;;;;5061265;28;20306;-82
2023/01/25 12:54:54;;;;;;;8.50;8.30;;;1.70;99.90;;;;;;5062832;28;20254;-82
2023/01/25 12:57:30;;;;;;;8.80;8.60;;;1.80;99.90;;;;;;5061694;28;20267;-82
2023/01/25 13:00:08;;;;;;;8.60;8.40;;;1.80;99.90;;;;;;5062262;28;20269;-82
2023/01/25 13:03:02;;;;;;;8.90;8.70;;;1.90;99.90;;;;;;5063002;28;20242;-82
2023/01/25 13:05:39;;;;;;;8.87;8.67;;;2.00;99.90;;;;;;5064481;28;20288;-82
2023/01/25 13:08:35;;;;;;;8.77;8.57;;;1.90;99.90;;;;;;5064526;28;20301;-83
2023/01/25 13:11:15;;;;;;;8.40;8.20;;;1.90;99.90;;;;;;5063730;28;20227;-81
2023/01/25 13:13:42;;;;;;;8.37;8.17;;;1.90;99.90;;;;;;5064147;28;20237;-82
2023/01/25 13:16:42;;;;;;;8.53;8.33;;;1.90;99.90;;;;;;5064830;28;20251;-82
2023/01/25 13:19:21;;;;;;;8.50;8.30;;;1.70;99.90;;;;;;5002539;28;20280;-83
2023/01/25 13:21:51;;;;;;;8.70;8.50;;;1.60;99.90;;;;;;5056066;28;20321;-82
2023/01/25 13:24:24;;;;;;;8.90;8.70;;;1.70;99.90;;;;;;5064983;28;20234;-82
2023/01/25 13:27:24;;;;;;;8.93;8.73;;;1.60;99.90;;;;;;5065715;28;20290;-82
2023/01/25 13:30:04;;;;;;;9.30;9.00;;;1.40;99.90;;;;;;5065813;28;20234;-82
2023/01/25 13:33:09;;;;;;;9.27;8.97;;;1.40;99.90;;;;;;5068450;28;20325;-83
2023/01/25 13:35:44;;;;;;;9.17;8.87;;;1.40;99.90;;;;;;5066015;28;20222;-82
2023/01/25 13:38:36;;;;;;;8.80;8.60;;;1.40;99.90;;;;;;5067039;28;20222;-83
2023/01/25 13:41:25;;;;;;;9.20;8.90;;;1.60;99.90;;;;;;5065853;28;20248;-82
2023/01/25 13:44:19;;;;;;;8.80;8.60;;;1.70;99.90;;;;;;5063785;28;20274;-83
2023/01/25 13:46:46;;;;;;;8.63;8.43;;;1.70;99.90;;;;;;5065158;28;20235;-82
2023/01/25 13:49:24;;;;;;;8.60;8.40;;;1.50;99.90;;;;;;5065967;28;20282;-83
2023/01/25 13:51:53;;;;;;;8.80;8.60;;;1.60;99.90;;;;;;5064986;28;20380;-82
2023/01/25 13:54:20;;;;;;;8.70;8.50;;;1.60;99.90;;;;;;5067530;28;20329;-83
2023/01/25 13:57:06;;;;;;;8.80;8.60;;;1.70;99.90;;;;;;5067511;28;20237;-83
2023/01/25 13:59:33;;;;;;;9.30;9.00;;;1.70;99.90;;;;;;5067725;28;20241;-83
2023/01/25 14:02:02;;;;;;;9.20;8.90;;;1.80;99.90;;;;;;5067097;28;20226;-83
2023/01/25 14:04:40;;;;;;;8.77;8.57;;;1.70;99.90;;;;;;5064562;28;20238;-86
2023/01/25 14:07:17;;;;;;;9.20;8.90;;;1.80;99.90;;;;;;5064825;28;20218;-84
2023/01/25 14:12:47;;;;;;;8.57;8.37;;;1.90;99.90;;;;;;5083199;28;20233;-85
2023/01/25 14:15:25;;;;;;;8.90;8.70;;;1.90;99.90;;;;;;5084753;28;20260;-83
2023/01/25 14:18:16;;;;;;;9.10;8.80;;;1.90;99.90;;;;;;5083818;28;20242;-83
2023/01/25 14:20:47;;;;;;;9.20;8.90;;;1.80;99.90;;;;;;5063660;28;20234;-84
2023/01/25 14:23:25;;;;;;;9.20;8.90;;;1.90;99.90;;;;;;5066125;28;20243;-84
2023/01/25 14:25:57;;;;;;;9.37;9.07;;;1.80;99.90;;;;;;5067882;28;20244;-82
2023/01/25 14:28:31;;;;;;;9.40;9.10;;;1.70;99.90;;;;;;5066791;28;20231;-84
2023/01/25 14:31:01;;;;;;;9.10;8.80;;;1.60;99.90;;;;;;5065546;28;20298;-84
2023/01/25 14:33:36;;;;;;;9.37;9.07;;;1.50;99.90;;;;;;5064972;28;20238;-82
2023/01/25 14:36:17;;;;;;;9.10;8.80;;;1.40;99.90;;;;;;5066384;28;20230;-84
2023/01/25 14:38:45;;;;;;;9.40;9.10;;;1.40;99.90;;;;;;5066365;28;20258;-83
2023/01/25 14:41:18;;;;;;;9.30;9.00;;;1.40;99.90;;;;;;5067576;28;20231;-83
2023/01/25 14:43:49;;;;;;;9.53;9.23;;;1.50;99.90;;;;;;5076620;28;20238;-83
2023/01/25 14:46:27;;;;;;;8.90;8.70;;;1.50;99.90;;;;;;5088488;28;20294;-83
2023/01/25 14:49:24;;;;;;;9.27;8.97;;;1.40;99.90;;;;;;5088261;28;20373;-83
2023/01/25 14:52:03;;;;;;;8.90;8.70;;;1.20;99.90;;;;;;5088416;28;20226;-83
2023/01/25 14:54:37;;;;;;;8.60;8.40;;;1.30;99.90;;;;;;5089798;28;20336;-82
2023/01/25 14:57:14;;;;;;;8.80;8.60;;;1.40;99.90;;;;;;5087798;28;20258;-83
2023/01/25 14:59:48;;;;;;;8.70;8.50;;;1.40;99.90;;;;;;5088668;28;20248;-83
2023/01/25 15:02:25;;;;;;;8.90;8.70;;;1.40;99.90;;;;;;5087806;28;20222;-83
2023/01/25 15:04:56;;;;;;;9.50;9.20;;;1.40;99.90;;;;;;5078597;28;20232;-83
2023/01/25 15:07:47;;;;;;;9.50;9.20;;;1.50;99.90;;;;;;5074413;28;20235;-83
2023/01/25 15:10:22;;;;;;;9.20;8.90;;;1.50;99.90;;;;;;5073591;28;20242;-83
2023/01/25 15:13:02;;;;;;;8.90;8.70;;;1.50;99.90;;;;;;5081789;28;20229;-83
2023/01/25 15:15:34;;;;;;;8.90;8.70;;;1.40;99.90;;;;;;5086992;28;20234;-82